createdAt,value
2018-09-15T00:02:10.262Z,69.24
2018-09-15T00:04:40.609Z,69.18
2018-09-15T00:07:11.028Z,70.01
2018-09-15T00:09:41.364Z,69.15
2018-09-15T00:12:11.712Z,69.54
2018-09-15T00:14:42.226Z,69.82
2018-09-15T00:17:13.300Z,69.34
2018-09-15T00:19:44.389Z,69.39
2018-09-15T00:22:15.030Z,69.47
2018-09-15T00:24:45.581Z,69.44
2018-09-15T00:27:16.191Z,68.84
2018-09-15T00:29:46.539Z,68.25
2018-09-15T00:32:16.852Z,68.32
2018-09-15T00:34:47.281Z,68.12
2018-09-15T00:37:17.741Z,68.32
2018-09-15T00:39:48.157Z,69.09
2018-09-15T00:42:18.621Z,69.03
2018-09-15T00:44:48.912Z,68.62
2018-09-15T00:47:19.368Z,68.21
2018-09-15T00:49:50.067Z,67.60
2018-09-15T00:52:20.544Z,67.74
2018-09-15T00:54:51.108Z,67.89
2018-09-15T00:57:21.537Z,67.99
2018-09-15T00:59:51.907Z,67.04
2018-09-15T01:02:22.359Z,67.81
2018-09-15T01:04:53.036Z,67.21
2018-09-15T01:07:23.528Z,67.08
2018-09-15T01:09:53.949Z,66.66
2018-09-15T01:12:24.376Z,66.71
2018-09-15T01:15:16.515Z,66.75
2018-09-15T01:17:46.828Z,66.99
2018-09-15T01:20:17.383Z,66.61
2018-09-15T01:22:47.883Z,67.10
2018-09-15T01:25:18.607Z,66.71
2018-09-15T01:27:49.177Z,67.52
2018-09-15T01:30:19.762Z,67.15
2018-09-15T01:32:50.117Z,67.75
2018-09-15T01:35:20.392Z,67.75
2018-09-15T01:37:50.876Z,67.81
2018-09-15T01:40:21.312Z,68.29
2018-09-15T01:42:51.802Z,69.14
2018-09-15T01:45:22.852Z,68.45
2018-09-15T01:47:53.416Z,69.03
2018-09-15T01:50:23.665Z,69.10
2018-09-15T01:52:53.981Z,69.54
2018-09-15T01:55:24.408Z,69.53
2018-09-15T01:57:54.908Z,69.86
2018-09-15T02:00:25.347Z,69.80
2018-09-15T02:02:55.824Z,69.48
2018-09-15T02:05:26.092Z,69.76
2018-09-15T02:07:56.556Z,70.20
2018-09-15T02:10:27.205Z,70.36
2018-09-15T02:12:58.069Z,70.58
2018-09-15T02:15:28.444Z,70.21
2018-09-15T02:17:59.212Z,70.20
2018-09-15T02:20:29.619Z,70.24
2018-09-15T02:23:00.152Z,70.33
2018-09-15T02:25:30.600Z,70.21
2018-09-15T02:28:00.968Z,70.19
2018-09-15T02:30:31.345Z,69.88
2018-09-15T02:33:01.744Z,69.66
2018-09-15T02:35:32.124Z,69.39
2018-09-15T02:38:02.533Z,68.37
2018-09-15T02:40:32.857Z,68.68
2018-09-15T02:43:03.229Z,67.71
2018-09-15T02:45:33.647Z,68.70
2018-09-15T02:48:04.596Z,69.04
2018-09-15T02:50:35.031Z,68.37
2018-09-15T02:53:05.256Z,68.39
2018-09-15T02:55:35.622Z,69.02
2018-09-15T02:58:06.172Z,69.47
2018-09-15T03:00:36.760Z,69.31
2018-09-15T03:03:07.275Z,69.52
2018-09-15T03:05:37.549Z,69.75
2018-09-15T03:08:07.933Z,69.44
2018-09-15T03:10:38.385Z,69.21
2018-09-15T03:13:08.768Z,68.90
2018-09-15T03:15:39.100Z,69.36
2018-09-15T03:18:09.327Z,69.57
2018-09-15T03:20:39.670Z,69.55
2018-09-15T03:23:10.140Z,69.96
2018-09-15T03:25:40.709Z,69.62
2018-09-15T03:28:10.985Z,70.52
2018-09-15T03:30:41.364Z,69.62
2018-09-15T03:33:12.382Z,69.63
2018-09-15T03:35:42.851Z,70.58
2018-09-15T03:38:13.242Z,70.73
2018-09-15T03:40:43.639Z,70.12
2018-09-15T03:43:14.107Z,69.34
2018-09-15T03:45:44.462Z,69.44
2018-09-15T03:48:14.837Z,69.75
2018-09-15T03:50:45.173Z,69.39
2018-09-15T03:53:15.415Z,69.45
2018-09-15T03:55:45.695Z,69.29
2018-09-15T03:58:16.061Z,69.45
2018-09-15T04:00:48.557Z,70.07
2018-09-15T04:03:19.093Z,70.62
2018-09-15T04:05:49.588Z,70.49
2018-09-15T04:08:20.723Z,70.58
2018-09-15T04:10:51.216Z,70.73
2018-09-15T04:13:21.651Z,70.69
2018-09-15T04:15:51.824Z,70.75
2018-09-15T04:18:22.161Z,70.42
2018-09-15T04:20:52.637Z,70.94
2018-09-15T04:23:23.114Z,70.82
2018-09-15T04:25:53.472Z,69.85
2018-09-15T04:28:23.771Z,70.22
2018-09-15T04:30:54.424Z,70.58
2018-09-15T04:33:24.784Z,70.50
2018-09-15T04:35:55.279Z,70.51
2018-09-15T04:38:25.703Z,70.70
2018-09-15T04:40:56.072Z,70.96
2018-09-15T04:43:26.434Z,71.52
2018-09-15T04:45:56.799Z,71.50
2018-09-15T04:48:27.151Z,71.15
2018-09-15T04:50:57.701Z,71.11
2018-09-15T04:53:28.129Z,71.19
2018-09-15T04:55:58.402Z,70.81
2018-09-15T04:58:28.828Z,70.43
2018-09-15T05:00:59.319Z,70.37
2018-09-15T05:03:29.813Z,70.63
2018-09-15T05:06:00.363Z,71.05
2018-09-15T05:08:30.749Z,70.59
2018-09-15T05:11:01.079Z,70.82
2018-09-15T05:13:31.568Z,69.69
2018-09-15T05:16:02.146Z,70.08
2018-09-15T05:18:32.377Z,69.48
2018-09-15T05:21:02.827Z,70.08
2018-09-15T05:23:33.487Z,69.68
2018-09-15T05:26:03.838Z,69.90
2018-09-15T05:28:34.333Z,68.55
2018-09-15T05:31:04.724Z,65.71
2018-09-15T05:33:34.975Z,63.77
2018-09-15T05:36:05.476Z,62.89
2018-09-15T05:38:35.890Z,63.16
2018-09-15T05:41:06.383Z,64.33
2018-09-15T05:43:37.531Z,64.65
2018-09-15T05:46:08.263Z,64.92
2018-09-15T05:48:38.768Z,63.69
2018-09-15T05:51:09.106Z,60.13
2018-09-15T05:53:39.385Z,57.21
2018-09-15T05:56:10.055Z,56.41
2018-09-15T05:58:40.471Z,57.23
2018-09-15T06:01:11.504Z,58.75
2018-09-15T06:03:42.055Z,55.94
2018-09-15T06:06:12.599Z,53.40
2018-09-15T06:08:43.029Z,51.12
2018-09-15T06:11:14.004Z,49.33
2018-09-15T06:13:44.462Z,48.38
2018-09-15T06:16:14.680Z,47.64
2018-09-15T06:18:45.119Z,45.76
2018-09-15T06:21:15.720Z,44.82
2018-09-15T06:23:46.132Z,45.57
2018-09-15T06:26:16.775Z,44.48
2018-09-15T06:28:47.040Z,44.78
2018-09-15T06:31:17.649Z,45.26
2018-09-15T06:33:48.756Z,44.10
2018-09-15T06:36:19.361Z,43.03
2018-09-15T06:38:49.841Z,43.44
2018-09-15T06:41:20.152Z,42.11
2018-09-15T06:43:50.523Z,41.93
2018-09-15T06:46:21.316Z,41.02
2018-09-15T06:48:51.584Z,40.70
2018-09-15T06:51:22.009Z,40.84
2018-09-15T06:53:52.417Z,41.02
2018-09-15T06:56:23.512Z,42.88
2018-09-15T06:58:54.044Z,42.45
2018-09-15T07:01:24.547Z,42.86
2018-09-15T07:03:55.107Z,40.92
2018-09-15T07:06:25.479Z,42.75
2018-09-15T07:08:55.984Z,42.06
2018-09-15T07:11:26.369Z,40.70
2018-09-15T07:13:56.748Z,40.46
2018-09-15T07:16:27.104Z,41.25
2018-09-15T07:19:16.033Z,43.30
2018-09-15T07:21:46.516Z,46.15
2018-09-15T07:24:16.964Z,48.51
2018-09-15T07:26:47.562Z,50.40
2018-09-15T07:29:18.042Z,52.05
2018-09-15T07:31:48.344Z,46.64
2018-09-15T07:34:18.652Z,44.25
2018-09-15T07:36:49.185Z,43.27
2018-09-15T07:39:21.240Z,41.19
2018-09-15T07:41:51.706Z,42.22
2018-09-15T07:44:22.168Z,45.20
2018-09-15T07:46:53.452Z,45.89
2018-09-15T07:49:23.890Z,43.58
2018-09-15T07:51:54.136Z,43.09
2018-09-15T07:54:24.563Z,46.10
2018-09-15T07:56:54.773Z,48.61
2018-09-15T07:59:25.221Z,49.92
2018-09-15T08:01:55.644Z,51.51
2018-09-15T08:04:26.118Z,52.44
2018-09-15T08:06:56.599Z,52.62
2018-09-15T08:09:26.980Z,52.00
2018-09-15T08:11:57.347Z,51.81
2018-09-15T08:14:27.584Z,52.88
2018-09-15T08:16:57.968Z,52.51
2018-09-15T08:19:28.555Z,53.29
2018-09-15T08:21:59.091Z,54.34
2018-09-15T08:24:29.303Z,55.17
2018-09-15T08:27:00.074Z,56.16
2018-09-15T08:29:30.367Z,55.31
2018-09-15T08:32:01.004Z,53.88
2018-09-15T08:34:31.444Z,51.23
2018-09-15T08:37:01.788Z,49.76
2018-09-15T08:39:32.180Z,49.62
2018-09-15T08:42:02.569Z,49.29
2018-09-15T08:44:32.987Z,47.44
2018-09-15T08:47:03.447Z,49.34
2018-09-15T08:49:33.819Z,49.45
2018-09-15T08:52:04.244Z,48.35
2018-09-15T08:54:34.715Z,48.52
2018-09-15T08:57:04.909Z,48.90
2018-09-15T08:59:35.260Z,50.34
2018-09-15T09:02:05.845Z,50.11
2018-09-15T09:04:36.224Z,49.39
2018-09-15T09:07:07.460Z,49.87
2018-09-15T09:09:38.074Z,50.43
2018-09-15T09:12:08.926Z,50.95
2018-09-15T09:14:39.564Z,49.26
2018-09-15T09:17:10.017Z,49.22
2018-09-15T09:19:40.220Z,48.27
2018-09-15T09:22:10.551Z,48.20
2018-09-15T09:24:40.955Z,48.18
2018-09-15T09:27:11.571Z,47.98
2018-09-15T09:29:42.044Z,48.69
2018-09-15T09:32:12.407Z,48.56
2018-09-15T09:34:42.969Z,49.33
2018-09-15T09:37:13.354Z,48.83
2018-09-15T09:39:43.809Z,47.47
2018-09-15T09:42:14.145Z,48.13
2018-09-15T09:44:44.545Z,47.54
2018-09-15T09:47:14.853Z,47.41
2018-09-15T09:49:45.224Z,48.38
2018-09-15T09:52:15.622Z,48.99
2018-09-15T09:54:46.103Z,48.06
2018-09-15T09:57:16.540Z,46.96
2018-09-15T09:59:47.031Z,46.29
2018-09-15T10:02:24.936Z,46.14
2018-09-15T10:04:55.497Z,46.50
2018-09-15T10:07:26.839Z,47.69
2018-09-15T10:09:57.376Z,48.83
2018-09-15T10:12:27.888Z,47.35
2018-09-15T10:14:58.087Z,46.42
2018-09-15T10:17:28.480Z,48.17
2018-09-15T10:19:59.323Z,47.04
2018-09-15T10:22:29.752Z,46.24
2018-09-15T10:25:00.157Z,46.70
2018-09-15T10:27:30.539Z,45.35
2018-09-15T10:30:00.820Z,46.28
2018-09-15T10:32:31.180Z,45.33
2018-09-15T10:35:01.543Z,45.86
2018-09-15T10:37:31.960Z,45.24
2018-09-15T10:40:02.958Z,45.11
2018-09-15T10:42:33.437Z,46.20
2018-09-15T10:45:03.743Z,46.16
2018-09-15T10:47:34.069Z,45.36
2018-09-15T10:50:04.659Z,45.49
2018-09-15T10:52:35.209Z,45.40
2018-09-15T10:55:05.751Z,45.12
2018-09-15T10:57:36.005Z,44.92
2018-09-15T11:00:06.716Z,45.87
2018-09-15T11:02:37.119Z,45.96
2018-09-15T11:05:07.735Z,46.92
2018-09-15T11:07:38.322Z,49.51
2018-09-15T11:10:08.787Z,50.72
2018-09-15T11:12:39.040Z,54.72
2018-09-15T11:15:09.318Z,58.33
2018-09-15T11:17:39.824Z,58.84
2018-09-15T11:20:10.324Z,59.86
2018-09-15T11:22:40.587Z,59.31
2018-09-15T11:25:10.946Z,59.64
2018-09-15T11:27:54.481Z,60.85
2018-09-15T11:30:24.852Z,63.14
2018-09-15T11:32:55.229Z,63.56
2018-09-15T11:35:25.793Z,64.17
2018-09-15T11:37:56.285Z,63.32
2018-09-15T11:40:26.784Z,63.84
2018-09-15T11:42:57.339Z,64.51
2018-09-15T11:45:27.687Z,64.28
2018-09-15T11:47:58.209Z,63.82
2018-09-15T11:50:28.701Z,62.61
2018-09-15T11:52:59.208Z,63.16
2018-09-15T11:55:29.556Z,61.82
2018-09-15T11:58:00.048Z,61.57
2018-09-15T12:00:32.674Z,59.67
2018-09-15T12:03:03.220Z,59.13
2018-09-15T12:05:33.648Z,57.19
2018-09-15T12:08:04.152Z,57.61
2018-09-15T12:10:34.695Z,56.26
2018-09-15T12:13:05.110Z,54.07
2018-09-15T12:15:35.761Z,54.87
2018-09-15T12:18:06.312Z,53.56
2018-09-15T12:20:36.771Z,53.22
2018-09-15T12:23:07.050Z,51.67
2018-09-15T12:25:37.555Z,52.40
2018-09-15T12:28:08.136Z,52.15
2018-09-15T12:30:38.325Z,51.69
2018-09-15T12:33:08.732Z,51.56
2018-09-15T12:35:39.183Z,51.67
2018-09-15T12:38:09.515Z,51.94
2018-09-15T12:40:39.853Z,52.20
2018-09-15T12:43:10.220Z,51.37
2018-09-15T12:45:40.726Z,50.87
2018-09-15T12:48:11.236Z,51.36
2018-09-15T12:50:41.583Z,52.16
2018-09-15T12:53:11.875Z,51.68
2018-09-15T12:55:42.363Z,51.37
2018-09-15T12:58:12.860Z,52.09
2018-09-15T13:00:43.136Z,52.26
2018-09-15T13:03:13.508Z,53.79
2018-09-15T13:05:43.975Z,53.33
2018-09-15T13:08:14.651Z,53.84
2018-09-15T13:10:45.152Z,53.54
2018-09-15T13:13:15.605Z,53.67
2018-09-15T13:15:45.841Z,53.74
2018-09-15T13:18:16.487Z,52.53
2018-09-15T13:21:04.722Z,52.34
2018-09-15T13:23:35.083Z,51.81
2018-09-15T13:26:05.481Z,53.48
2018-09-15T13:28:35.932Z,54.81
2018-09-15T13:31:06.386Z,55.20
2018-09-15T13:33:37.022Z,56.16
2018-09-15T13:36:07.072Z,55.54
2018-09-15T13:38:37.577Z,55.13
2018-09-15T13:41:07.901Z,54.97
2018-09-15T13:43:38.371Z,54.51
2018-09-15T13:46:08.649Z,54.15
2018-09-15T13:48:39.107Z,53.29
2018-09-15T13:51:09.397Z,52.77
2018-09-15T13:53:39.885Z,54.27
2018-09-15T13:56:10.232Z,53.30
2018-09-15T13:58:40.776Z,53.65
2018-09-15T14:01:11.211Z,53.30
2018-09-15T14:03:45.068Z,52.31
2018-09-15T14:06:22.810Z,51.85
2018-09-15T14:08:53.308Z,51.14
2018-09-15T14:11:23.698Z,50.75
2018-09-15T14:13:53.901Z,49.94
2018-09-15T14:16:24.410Z,50.47
2018-09-15T14:18:54.684Z,49.42
2018-09-15T14:21:25.439Z,48.89
2018-09-15T14:23:55.814Z,49.11
2018-09-15T14:26:26.068Z,46.66
2018-09-15T14:28:56.528Z,47.54
2018-09-15T14:31:26.911Z,47.91
2018-09-15T14:33:57.321Z,47.93
2018-09-15T14:36:27.916Z,49.03
2018-09-15T14:38:58.388Z,49.65
2018-09-15T14:41:28.876Z,49.58
2018-09-15T14:43:59.216Z,48.98
2018-09-15T14:46:29.648Z,48.52
2018-09-15T14:49:00.070Z,49.26
2018-09-15T14:51:30.197Z,48.48
2018-09-15T14:54:00.678Z,47.93
2018-09-15T14:56:31.016Z,48.07
2018-09-15T14:59:01.612Z,48.12
2018-09-15T15:01:31.913Z,48.30
2018-09-15T15:04:02.340Z,49.24
2018-09-15T15:06:32.792Z,48.73
2018-09-15T15:09:03.295Z,49.36
2018-09-15T15:11:43.848Z,49.44
2018-09-15T15:14:14.295Z,48.95
2018-09-15T15:16:44.655Z,49.39
2018-09-15T15:19:15.112Z,49.32
2018-09-15T15:21:45.560Z,49.38
2018-09-15T15:24:23.363Z,49.62
2018-09-15T15:26:53.808Z,49.61
2018-09-15T15:29:29.780Z,49.91
2018-09-15T15:32:00.177Z,50.52
2018-09-15T15:34:30.678Z,49.70
2018-09-15T15:37:01.159Z,50.69
2018-09-15T15:39:32.421Z,50.37
2018-09-15T15:42:02.822Z,50.52
2018-09-15T15:44:33.404Z,50.98
2018-09-15T15:47:03.785Z,50.63
2018-09-15T15:49:34.101Z,49.56
2018-09-15T15:52:04.831Z,50.03
2018-09-15T15:54:35.285Z,50.21
2018-09-15T15:57:05.852Z,50.50
2018-09-15T15:59:36.365Z,50.50
2018-09-15T16:02:06.876Z,50.96
2018-09-15T16:04:37.110Z,51.33
2018-09-15T16:07:07.497Z,50.21
2018-09-15T16:09:37.968Z,50.24
2018-09-15T16:12:08.342Z,49.96
2018-09-15T16:14:38.898Z,50.18
2018-09-15T16:17:09.189Z,50.03
2018-09-15T16:19:39.829Z,49.79
2018-09-15T16:22:10.275Z,50.38
2018-09-15T16:24:40.675Z,50.45
2018-09-15T16:27:11.049Z,50.80
2018-09-15T16:29:41.383Z,49.79
2018-09-15T16:32:15.783Z,50.70
2018-09-15T16:34:46.280Z,49.23
2018-09-15T16:37:16.560Z,50.24
2018-09-15T16:39:46.744Z,50.41
2018-09-15T16:42:17.094Z,50.22
2018-09-15T16:44:47.621Z,51.07
2018-09-15T16:47:17.943Z,51.87
2018-09-15T16:49:48.251Z,51.01
2018-09-15T16:52:18.713Z,51.44
2018-09-15T16:54:49.012Z,52.78
2018-09-15T16:57:19.378Z,52.69
2018-09-15T16:59:49.744Z,52.74
2018-09-15T17:02:20.125Z,53.96
2018-09-15T17:04:50.523Z,54.29
2018-09-15T17:07:21.336Z,53.11
2018-09-15T17:09:52.028Z,53.79
2018-09-15T17:12:22.692Z,53.94
2018-09-15T17:14:53.091Z,52.94
2018-09-15T17:17:23.453Z,53.68
2018-09-15T17:19:53.970Z,53.65
2018-09-15T17:22:24.385Z,53.02
2018-09-15T17:24:54.860Z,53.13
2018-09-15T17:27:25.089Z,54.03
2018-09-15T17:29:55.496Z,53.51
2018-09-15T17:32:25.948Z,54.30
2018-09-15T17:34:56.562Z,54.02
2018-09-15T17:37:27.166Z,54.83
2018-09-15T17:39:58.058Z,55.58
2018-09-15T17:42:28.965Z,55.10
2018-09-15T17:44:59.516Z,55.15
2018-09-15T17:47:29.786Z,55.20
2018-09-15T17:50:00.268Z,55.83
2018-09-15T17:52:30.749Z,56.01
2018-09-15T17:55:01.439Z,55.46
2018-09-15T17:57:31.836Z,56.24
2018-09-15T18:00:02.289Z,56.28
2018-09-15T18:02:33.037Z,56.19
2018-09-15T18:05:03.544Z,56.19
2018-09-15T18:07:34.002Z,56.27
2018-09-15T18:10:04.605Z,57.06
2018-09-15T18:12:35.907Z,56.40
2018-09-15T18:15:06.401Z,56.40
2018-09-15T18:17:36.835Z,57.07
2018-09-15T18:20:07.501Z,57.25
2018-09-15T18:22:38.133Z,56.85
2018-09-15T18:25:08.752Z,57.80
2018-09-15T18:27:51.195Z,57.83
2018-09-15T18:30:21.525Z,57.15
2018-09-15T18:32:52.020Z,57.14
2018-09-15T18:35:22.519Z,58.13
2018-09-15T18:37:52.979Z,57.85
2018-09-15T18:40:23.488Z,58.30
2018-09-15T18:42:53.859Z,58.48
2018-09-15T18:45:24.312Z,59.15
2018-09-15T18:47:54.676Z,60.01
2018-09-15T18:50:25.164Z,60.71
2018-09-15T18:52:55.511Z,60.56
2018-09-15T18:55:25.796Z,61.10
2018-09-15T18:57:56.210Z,61.68
2018-09-15T19:00:26.682Z,61.61
2018-09-15T19:02:57.181Z,61.76
2018-09-15T19:05:27.711Z,62.14
2018-09-15T19:07:58.065Z,61.94
2018-09-15T19:10:28.461Z,62.46
2018-09-15T19:12:58.824Z,62.23
2018-09-15T19:15:29.483Z,61.76
2018-09-15T19:18:00.017Z,61.69
2018-09-15T19:20:30.588Z,62.89
2018-09-15T19:23:01.091Z,62.47
2018-09-15T19:25:31.613Z,62.32
2018-09-15T19:28:02.036Z,63.11
2018-09-15T19:30:32.307Z,63.36
2018-09-15T19:33:02.579Z,63.00
2018-09-15T19:35:33.058Z,63.87
2018-09-15T19:38:03.622Z,64.03
2018-09-15T19:40:34.325Z,64.09
2018-09-15T19:43:04.876Z,63.97
2018-09-15T19:45:35.272Z,64.53
2018-09-15T19:48:05.788Z,64.45
2018-09-15T19:50:36.267Z,64.34
2018-09-15T19:53:06.869Z,64.20
2018-09-15T19:55:37.476Z,64.88
2018-09-15T19:58:08.157Z,65.24
2018-09-15T20:00:38.759Z,65.94
2018-09-15T20:03:09.332Z,66.23
2018-09-15T20:05:39.684Z,65.73
2018-09-15T20:08:10.278Z,66.64
2018-09-15T20:10:40.869Z,66.32
2018-09-15T20:13:11.252Z,67.19
2018-09-15T20:15:39.392Z,67.22
2018-09-15T20:20:32.490Z,66.99
2018-09-15T20:23:03.016Z,67.25
2018-09-15T20:25:33.449Z,67.98
2018-09-15T20:28:03.952Z,67.61
2018-09-15T20:30:34.348Z,68.22
2018-09-15T20:33:04.827Z,68.31
2018-09-15T20:35:35.270Z,68.46
2018-09-15T20:38:05.877Z,67.83
2018-09-15T20:40:36.373Z,68.15
2018-09-15T20:43:06.822Z,68.05
2018-09-15T20:45:37.136Z,68.46
2018-09-15T20:48:07.545Z,68.52
2018-09-15T20:53:38.116Z,68.01
2018-09-15T20:56:08.428Z,68.54
2018-09-15T20:58:38.835Z,68.58
2018-09-15T21:01:09.091Z,67.74
2018-09-15T21:03:39.548Z,68.24
2018-09-15T21:06:09.939Z,68.14
2018-09-15T21:08:40.444Z,67.66
2018-09-15T21:11:10.915Z,67.99
2018-09-15T21:13:41.158Z,67.81
2018-09-15T21:16:11.580Z,68.16
2018-09-15T21:18:41.944Z,68.31
2018-09-15T21:21:12.535Z,68.47
2018-09-15T21:23:42.995Z,68.96
2018-09-15T21:26:13.600Z,69.24
2018-09-15T21:28:43.952Z,69.73
2018-09-15T21:31:14.327Z,69.36
2018-09-15T21:33:44.825Z,69.72
2018-09-15T21:36:15.237Z,69.80
2018-09-15T21:38:45.626Z,69.46
2018-09-15T21:41:16.136Z,69.73
2018-09-15T21:43:46.526Z,69.63
2018-09-15T21:46:16.933Z,70.54
2018-09-15T21:48:47.336Z,69.81
2018-09-15T21:51:17.945Z,70.26
2018-09-15T21:53:48.309Z,70.30
2018-09-15T21:56:18.629Z,69.58
2018-09-15T21:58:49.104Z,70.44
2018-09-15T22:01:19.512Z,70.62
2018-09-15T22:03:55.483Z,70.19
2018-09-15T22:06:25.796Z,70.28
2018-09-15T22:08:56.320Z,70.91
2018-09-15T22:11:26.889Z,70.92
2018-09-15T22:13:57.345Z,71.21
2018-09-15T22:16:27.600Z,71.57
2018-09-15T22:18:57.976Z,71.74
2018-09-15T22:21:28.790Z,72.36
2018-09-15T22:23:59.256Z,72.14
2018-09-15T22:26:29.875Z,72.74
2018-09-15T22:29:00.083Z,71.96
2018-09-15T22:31:30.722Z,71.97
2018-09-15T22:34:01.932Z,72.10
2018-09-15T22:36:32.291Z,72.34
2018-09-15T22:39:02.771Z,72.01
2018-09-15T22:41:33.093Z,72.85
2018-09-15T22:44:03.492Z,72.75
2018-09-15T22:46:33.935Z,72.99
2018-09-15T22:49:04.364Z,73.95
2018-09-15T22:51:34.800Z,74.05
2018-09-15T22:54:05.842Z,73.78
2018-09-15T22:56:36.076Z,74.20
2018-09-15T22:59:06.567Z,73.88
2018-09-15T23:01:37.151Z,73.70
2018-09-15T23:04:09.811Z,74.54
2018-09-15T23:06:40.333Z,74.46
2018-09-15T23:09:12.042Z,75.20
2018-09-15T23:11:42.552Z,75.12
2018-09-15T23:14:12.868Z,75.31
2018-09-15T23:16:43.279Z,75.34
2018-09-15T23:19:13.741Z,75.13
2018-09-15T23:21:44.156Z,74.88
2018-09-15T23:24:14.528Z,75.12
2018-09-15T23:26:44.913Z,75.19
2018-09-15T23:29:15.275Z,74.26
2018-09-15T23:31:45.884Z,74.13
2018-09-15T23:34:16.372Z,74.52
2018-09-15T23:36:46.949Z,75.05
2018-09-15T23:39:17.564Z,75.04
2018-09-15T23:41:48.444Z,75.13
2018-09-15T23:44:18.692Z,74.69
2018-09-15T23:46:49.084Z,75.58
2018-09-15T23:49:19.441Z,74.78
2018-09-15T23:51:49.951Z,75.06
2018-09-15T23:54:20.365Z,74.81
2018-09-15T23:56:50.771Z,74.81
2018-09-15T23:59:21.272Z,74.30
